LEZG/ZAZ METAR and TAF weather

Enter ICAO airport designator
Station Type Date Time Source
LEZG METAR 2022/06/29 01:30 UTC NOAA

LEZG 290130Z 28009KT CAVOK 20/12 Q1016


Station Type Date Time Source
LEZG Decoded METAR 2022/06/29 01:30 UTC NOAA

Zaragoza / Aeropuerto, Spain (LEZG) 41-40N 001-01W 258M
Jun 28, 2022 - 09:30 PM EDT / 2022.06.29 0130 UTC
Wind: from the W (280 degrees) at 10 MPH (9 KT):0
Visibility: greater than 7 mile(s):0
Temperature: 68 F (20 C)
Dew Point: 53 F (12 C)
Relative Humidity: 59%
Pressure (altimeter): 30.00 in. Hg (1016 hPa)
ob: LEZG 290130Z 28009KT CAVOK 20/12 Q1016
cycle: 1

Station Type Date Time Source
LEZG TAF 2022/06/28 18:27 UTC NOAA

TAF TAF LEZG 281700Z 2818/2918 33009KT 9999 FEW060 TX32/2915Z TN17/2906Z
TEMPO 2917/2918 TSRA FEW050CB
TEMPO 2917/2918 VRB20G35KT

Example: see airport list